createdAt,value
2024-04-21T00:02:11.118Z,1.60
2024-04-21T00:04:41.785Z,1.62
2024-04-21T00:07:12.416Z,1.62
2024-04-21T00:09:42.887Z,1.63
2024-04-21T00:12:13.394Z,1.60
2024-04-21T00:14:44.043Z,1.57
2024-04-21T00:17:14.377Z,1.58
2024-04-21T00:19:44.538Z,1.57
2024-04-21T00:22:14.971Z,1.59
2024-04-21T00:24:45.848Z,1.62
2024-04-21T00:27:16.160Z,1.53
2024-04-21T00:29:46.498Z,1.54
2024-04-21T00:32:17.135Z,1.54
2024-04-21T00:34:48.630Z,1.55
2024-04-21T00:37:19.033Z,1.55
2024-04-21T00:39:50.297Z,1.56
2024-04-21T00:42:20.602Z,1.56
2024-04-21T00:44:50.798Z,1.55
2024-04-21T00:47:21.143Z,1.52
2024-04-21T00:49:52.200Z,1.50
2024-04-21T00:52:21.001Z,1.49
2024-04-21T00:54:55.270Z,1.49
2024-04-21T00:57:25.954Z,1.51
2024-04-21T00:59:56.074Z,1.54
2024-04-21T01:02:26.719Z,1.60
2024-04-21T01:04:58.916Z,1.62
2024-04-21T01:07:29.324Z,1.60
2024-04-21T01:09:59.529Z,1.57
2024-04-21T01:12:30.324Z,1.55
2024-04-21T01:15:01.203Z,1.51
2024-04-21T01:17:31.985Z,1.48
2024-04-21T01:20:03.339Z,1.46
2024-04-21T01:22:33.994Z,1.40
2024-04-21T01:25:03.262Z,1.36
2024-04-21T01:27:34.362Z,1.31
2024-04-21T01:30:07.674Z,1.24
2024-04-21T01:32:38.458Z,1.21
2024-04-21T01:35:09.082Z,1.19
2024-04-21T01:37:39.303Z,1.13
2024-04-21T01:40:11.120Z,1.07
2024-04-21T01:42:41.361Z,1.00
2024-04-21T01:45:11.972Z,0.96
2024-04-21T01:47:43.160Z,0.96
2024-04-21T01:50:13.457Z,0.93
2024-04-21T01:52:43.731Z,0.95
2024-04-21T01:55:13.839Z,0.90
2024-04-21T01:57:46.688Z,0.84
2024-04-21T02:00:17.423Z,0.83
2024-04-21T02:02:48.091Z,0.81
2024-04-21T02:05:18.607Z,0.75
2024-04-21T02:07:49.627Z,0.69
2024-04-21T02:10:19.854Z,0.65
2024-04-21T02:12:50.632Z,0.64
2024-04-21T02:15:21.584Z,0.62
2024-04-21T02:17:52.253Z,0.59
2024-04-21T02:20:22.903Z,0.58
2024-04-21T02:22:53.493Z,0.60
2024-04-21T02:25:24.344Z,0.64
2024-04-21T02:27:55.102Z,0.64
2024-04-21T02:30:26.601Z,0.63
2024-04-21T02:32:57.386Z,0.62
2024-04-21T02:35:27.930Z,0.63
2024-04-21T02:37:58.465Z,0.68
2024-04-21T02:40:30.638Z,0.69
2024-04-21T02:43:00.974Z,0.67
2024-04-21T02:45:31.754Z,0.64
2024-04-21T02:48:02.816Z,0.65
2024-04-21T02:50:34.748Z,0.70
2024-04-21T02:53:05.422Z,0.67
2024-04-21T02:55:40.831Z,0.57
2024-04-21T02:58:11.223Z,0.44
2024-04-21T03:00:42.283Z,0.38
2024-04-21T03:03:12.516Z,0.35
2024-04-21T03:05:42.892Z,0.32
2024-04-21T03:08:16.742Z,0.35
2024-04-21T03:10:48.792Z,0.31
2024-04-21T03:13:19.487Z,0.27
2024-04-21T03:15:50.049Z,0.23
2024-04-21T03:18:20.667Z,0.20
2024-04-21T03:20:57.630Z,0.19
2024-04-21T03:23:28.201Z,0.20
2024-04-21T03:25:58.550Z,0.13
2024-04-21T03:28:29.666Z,0.12
2024-04-21T03:31:01.387Z,0.11
2024-04-21T03:33:31.906Z,0.11
2024-04-21T03:36:06.764Z,0.15
2024-04-21T03:38:37.927Z,0.22
2024-04-21T03:41:08.191Z,0.26
2024-04-21T03:43:38.468Z,0.27
2024-04-21T03:46:09.464Z,0.26
2024-04-21T03:48:39.682Z,0.29
2024-04-21T03:51:10.291Z,0.38
2024-04-21T03:53:40.947Z,0.42
2024-04-21T03:56:11.166Z,0.41
2024-04-21T03:58:41.304Z,0.44
2024-04-21T04:01:11.595Z,0.43
2024-04-21T04:03:41.962Z,0.41
2024-04-21T04:06:12.989Z,0.42
2024-04-21T04:08:43.854Z,0.46
2024-04-21T04:11:14.674Z,0.54
2024-04-21T04:13:45.022Z,0.59
2024-04-21T04:16:16.185Z,0.66
2024-04-21T04:18:47.395Z,0.76
2024-04-21T04:21:17.660Z,0.85
2024-04-21T04:23:48.353Z,0.90
2024-04-21T04:26:19.052Z,0.93
2024-04-21T04:28:49.247Z,1.02
2024-04-21T04:31:20.329Z,1.10
2024-04-21T04:33:50.770Z,1.17
2024-04-21T04:36:21.118Z,1.35
2024-04-21T04:38:52.137Z,2.06
2024-04-21T04:41:22.441Z,3.10
2024-04-21T04:43:52.639Z,3.99
2024-04-21T04:46:22.929Z,4.91
2024-04-21T04:48:53.134Z,5.94
2024-04-21T04:51:23.495Z,6.93
2024-04-21T04:53:54.405Z,7.35
2024-04-21T04:56:24.615Z,6.87
2024-04-21T04:58:54.866Z,6.28
2024-04-21T05:01:25.122Z,5.78
2024-04-21T05:03:55.351Z,5.34
2024-04-21T05:06:26.013Z,4.96
2024-04-21T05:08:56.278Z,4.69
2024-04-21T05:11:26.856Z,4.47
2024-04-21T05:13:57.361Z,4.15
2024-04-21T05:16:27.761Z,3.87
2024-04-21T05:18:58.335Z,3.66
2024-04-21T05:21:28.877Z,3.56
2024-04-21T05:23:59.304Z,3.44
2024-04-21T05:26:29.909Z,3.27
2024-04-21T05:29:00.586Z,3.19
2024-04-21T05:31:30.824Z,3.22
2024-04-21T05:34:01.938Z,3.23
2024-04-21T05:36:32.466Z,3.20
2024-04-21T05:39:03.019Z,3.16
2024-04-21T05:41:33.235Z,3.20
2024-04-21T05:44:04.201Z,3.22
2024-04-21T05:46:34.751Z,3.26
2024-04-21T05:49:05.546Z,3.36
2024-04-21T05:51:36.036Z,3.37
2024-04-21T05:54:06.529Z,3.25
2024-04-21T05:56:37.153Z,3.26
2024-04-21T05:59:07.381Z,3.27
2024-04-21T06:01:37.837Z,3.31
2024-04-21T06:04:08.486Z,3.31
2024-04-21T06:06:38.861Z,3.32
2024-04-21T06:09:09.108Z,3.36
2024-04-21T06:11:39.757Z,3.41
2024-04-21T06:14:11.298Z,3.53
2024-04-21T06:16:41.749Z,3.68
2024-04-21T06:19:12.382Z,3.77
2024-04-21T06:21:42.878Z,3.83
2024-04-21T06:24:13.522Z,3.92
2024-04-21T06:26:45.417Z,3.96
2024-04-21T06:29:16.868Z,3.94
2024-04-21T06:31:48.131Z,3.99
2024-04-21T06:34:18.433Z,4.00
2024-04-21T06:36:49.301Z,4.06
2024-04-21T06:39:19.748Z,4.08
2024-04-21T06:41:50.228Z,4.05
2024-04-21T06:44:20.828Z,4.18
2024-04-21T06:46:51.216Z,4.36
2024-04-21T06:49:22.032Z,4.45
2024-04-21T06:51:52.683Z,4.51
2024-04-21T06:54:23.110Z,4.66
2024-04-21T06:56:53.257Z,4.73
2024-04-21T06:59:23.564Z,4.70
2024-04-21T07:01:54.095Z,4.69
2024-04-21T07:04:24.446Z,4.68
2024-04-21T07:06:54.899Z,4.77
2024-04-21T07:09:25.237Z,4.86
2024-04-21T07:11:55.833Z,5.00
2024-04-21T07:14:26.627Z,5.20
2024-04-21T07:16:56.779Z,5.41
2024-04-21T07:19:27.008Z,5.51
2024-04-21T07:21:57.986Z,5.59
2024-04-21T07:24:29.823Z,5.65
2024-04-21T07:27:00.598Z,5.57
2024-04-21T07:29:31.109Z,5.46
2024-04-21T07:32:01.444Z,5.50
2024-04-21T07:34:32.371Z,5.53
2024-04-21T07:37:02.781Z,5.62
2024-04-21T07:39:33.733Z,5.85
2024-04-21T07:42:04.235Z,6.06
2024-04-21T07:44:34.758Z,6.26
2024-04-21T07:47:07.536Z,6.40
2024-04-21T07:49:38.346Z,6.56
2024-04-21T07:52:08.817Z,6.84
2024-04-21T07:54:39.683Z,7.19
2024-04-21T07:57:10.323Z,7.29
2024-04-21T07:59:41.077Z,7.37
2024-04-21T08:02:11.434Z,7.55
2024-04-21T08:04:41.679Z,7.84
2024-04-21T08:07:12.297Z,7.98
2024-04-21T08:09:42.733Z,7.98
2024-04-21T08:12:13.106Z,8.12
2024-04-21T08:14:44.282Z,8.31
2024-04-21T08:17:14.855Z,8.35
2024-04-21T08:19:45.442Z,8.09
2024-04-21T08:22:16.101Z,7.72
2024-04-21T08:24:46.354Z,7.20
2024-04-21T08:27:16.694Z,6.89
2024-04-21T08:29:46.894Z,6.80
2024-04-21T08:32:17.221Z,6.80
2024-04-21T08:34:47.796Z,6.79
2024-04-21T08:37:18.958Z,6.76
2024-04-21T08:39:50.624Z,6.75
2024-04-21T08:42:28.115Z,6.75
2024-04-21T08:44:58.466Z,6.62
2024-04-21T08:47:29.906Z,6.54
2024-04-21T08:50:01.939Z,6.50
2024-04-21T08:52:34.006Z,6.51
2024-04-21T08:55:05.622Z,6.61
2024-04-21T08:57:36.596Z,6.73
2024-04-21T09:00:11.788Z,6.78
2024-04-21T09:02:43.683Z,6.78
2024-04-21T09:05:15.103Z,6.78
2024-04-21T09:07:46.234Z,6.70
2024-04-21T09:10:16.712Z,6.70
2024-04-21T09:12:47.379Z,6.80
2024-04-21T09:15:18.338Z,6.91
2024-04-21T09:17:47.303Z,7.02
2024-04-21T09:20:17.801Z,6.90
2024-04-21T09:22:47.991Z,6.81
2024-04-21T09:25:19.708Z,6.77
2024-04-21T09:27:50.518Z,6.74
2024-04-21T09:30:21.530Z,6.74
2024-04-21T09:32:51.786Z,6.82
2024-04-21T09:35:23.629Z,6.93
2024-04-21T09:37:55.470Z,7.09
2024-04-21T09:40:26.391Z,7.02
2024-04-21T09:42:57.837Z,6.92
2024-04-21T09:45:29.967Z,6.82
2024-04-21T09:48:02.919Z,6.89
2024-04-21T09:50:33.271Z,7.03
2024-04-21T09:53:06.042Z,7.08
2024-04-21T09:55:40.945Z,7.31
2024-04-21T09:58:14.867Z,7.71
2024-04-21T10:00:49.468Z,7.87
2024-04-21T10:03:20.189Z,8.00
2024-04-21T10:05:52.644Z,8.00
2024-04-21T10:08:23.682Z,7.95
2024-04-21T10:10:54.851Z,8.04
2024-04-21T10:13:24.419Z,8.14
2024-04-21T10:15:54.937Z,8.21
2024-04-21T10:18:26.250Z,8.28
2024-04-21T10:20:57.186Z,8.38
2024-04-21T10:23:28.865Z,8.53
2024-04-21T10:25:59.457Z,8.68
2024-04-21T10:28:31.057Z,8.85
2024-04-21T10:31:09.384Z,8.96
2024-04-21T10:33:40.327Z,8.95
2024-04-21T10:36:20.798Z,8.89
2024-04-21T10:38:54.786Z,8.79
2024-04-21T10:41:26.559Z,8.70
2024-04-21T10:43:56.893Z,8.71
2024-04-21T10:46:30.890Z,8.88
2024-04-21T10:49:01.227Z,8.97
2024-04-21T10:51:31.750Z,8.84
2024-04-21T10:54:02.250Z,8.75
2024-04-21T10:56:33.086Z,8.82
2024-04-21T10:59:03.628Z,8.84
2024-04-21T11:01:33.891Z,8.85
2024-04-21T11:04:04.338Z,8.85
2024-04-21T11:06:35.213Z,8.96
2024-04-21T11:09:05.872Z,9.20
2024-04-21T11:11:36.465Z,9.33
2024-04-21T11:14:06.870Z,9.47
2024-04-21T11:16:37.192Z,9.48
2024-04-21T11:19:08.213Z,9.43
2024-04-21T11:21:37.027Z,9.57
2024-04-21T11:24:07.935Z,9.62
2024-04-21T11:26:38.658Z,9.64
2024-04-21T11:29:09.322Z,9.39
2024-04-21T11:31:39.524Z,9.18
2024-04-21T11:34:12.296Z,9.02
2024-04-21T11:36:43.451Z,9.03
2024-04-21T11:39:13.691Z,9.18
2024-04-21T11:41:47.192Z,9.29
2024-04-21T11:44:19.417Z,9.26
2024-04-21T11:46:50.894Z,9.24
2024-04-21T11:49:21.118Z,8.96
2024-04-21T11:51:51.530Z,8.86
2024-04-21T11:54:21.712Z,8.80
2024-04-21T11:56:52.379Z,8.82
2024-04-21T11:59:22.666Z,8.67
2024-04-21T12:01:53.328Z,8.70
2024-04-21T12:04:23.921Z,8.71
2024-04-21T12:06:54.317Z,8.76
2024-04-21T12:09:25.112Z,8.69
2024-04-21T12:11:55.490Z,8.69
2024-04-21T12:14:30.517Z,8.80
2024-04-21T12:17:01.327Z,8.82
2024-04-21T12:19:40.786Z,8.86
2024-04-21T12:22:11.130Z,8.81
2024-04-21T12:24:43.843Z,8.57
2024-04-21T12:27:14.217Z,8.53
2024-04-21T12:29:45.441Z,8.73
2024-04-21T12:32:15.779Z,8.84
2024-04-21T12:34:46.325Z,8.84
2024-04-21T12:37:16.831Z,8.91
2024-04-21T12:39:47.518Z,8.90
2024-04-21T12:42:18.620Z,8.89
2024-04-21T12:44:47.732Z,8.70
2024-04-21T12:47:18.366Z,8.48
2024-04-21T12:49:48.661Z,8.34
2024-04-21T12:52:19.297Z,8.30
2024-04-21T12:54:50.268Z,8.26
2024-04-21T12:57:20.504Z,8.30
2024-04-21T12:59:50.772Z,8.35
2024-04-21T13:02:21.471Z,8.48
2024-04-21T13:04:50.732Z,8.57
2024-04-21T13:07:21.218Z,8.68
2024-04-21T13:09:52.071Z,8.74
2024-04-21T13:12:22.940Z,8.62
2024-04-21T13:14:53.235Z,8.70
2024-04-21T13:17:23.744Z,8.71
2024-04-21T13:19:54.241Z,8.65
2024-04-21T13:22:24.729Z,8.73
2024-04-21T13:24:54.881Z,8.88
2024-04-21T13:27:25.486Z,9.01
2024-04-21T13:29:55.935Z,9.09
2024-04-21T13:32:26.692Z,9.37
2024-04-21T13:35:01.416Z,9.44
2024-04-21T13:37:31.866Z,9.32
2024-04-21T13:40:02.327Z,9.26
2024-04-21T13:42:32.833Z,9.10
2024-04-21T13:45:03.891Z,8.97
2024-04-21T13:47:35.130Z,9.05
2024-04-21T13:50:07.329Z,9.20
2024-04-21T13:52:38.106Z,9.41
2024-04-21T13:55:10.264Z,9.60
2024-04-21T13:57:40.720Z,9.68
2024-04-21T14:00:12.956Z,9.59
2024-04-21T14:02:43.225Z,9.63
2024-04-21T14:05:14.204Z,9.54
2024-04-21T14:07:44.844Z,9.44
2024-04-21T14:10:15.651Z,9.50
2024-04-21T14:12:46.121Z,9.48
2024-04-21T14:15:16.511Z,9.40
2024-04-21T14:17:47.052Z,9.33
2024-04-21T14:20:18.144Z,9.12
2024-04-21T14:22:47.027Z,9.05
2024-04-21T14:25:17.687Z,8.95
2024-04-21T14:27:48.082Z,8.79
2024-04-21T14:30:18.718Z,8.72
2024-04-21T14:32:49.003Z,8.73
2024-04-21T14:35:20.021Z,8.79
2024-04-21T14:37:48.947Z,8.94
2024-04-21T14:40:19.468Z,8.90
2024-04-21T14:42:50.143Z,8.76
2024-04-21T14:45:20.338Z,8.66
2024-04-21T14:47:50.942Z,8.62
2024-04-21T14:50:21.678Z,8.67
2024-04-21T14:52:51.961Z,8.65
2024-04-21T14:55:22.932Z,8.61
2024-04-21T14:57:54.161Z,8.39
2024-04-21T15:00:24.832Z,8.18
2024-04-21T15:02:55.694Z,8.01
2024-04-21T15:05:26.375Z,7.95
2024-04-21T15:07:56.768Z,7.95
2024-04-21T15:10:28.271Z,8.02
2024-04-21T15:12:58.993Z,8.10
2024-04-21T15:15:29.732Z,8.16
2024-04-21T15:18:01.410Z,8.08
2024-04-21T15:20:31.719Z,8.00
2024-04-21T15:23:02.269Z,7.91
2024-04-21T15:25:38.214Z,7.84
2024-04-21T15:28:15.449Z,7.73
2024-04-21T15:30:46.026Z,7.56
2024-04-21T15:33:16.281Z,7.58
2024-04-21T15:35:46.883Z,7.68
2024-04-21T15:38:17.606Z,7.81
2024-04-21T15:40:46.689Z,8.09
2024-04-21T15:43:17.582Z,8.33
2024-04-21T15:45:47.836Z,8.52
2024-04-21T15:48:18.095Z,8.65
2024-04-21T15:50:49.115Z,8.68
2024-04-21T15:53:19.530Z,8.62
2024-04-21T15:55:49.779Z,8.58
2024-04-21T15:58:20.259Z,8.40
2024-04-21T16:00:50.522Z,8.15
2024-04-21T16:03:21.001Z,7.89
2024-04-21T16:05:51.349Z,7.72
2024-04-21T16:08:22.079Z,7.57
2024-04-21T16:10:52.341Z,7.51
2024-04-21T16:13:23.166Z,7.46
2024-04-21T16:15:53.546Z,7.35
2024-04-21T16:18:24.286Z,7.33
2024-04-21T16:20:54.924Z,7.19
2024-04-21T16:23:25.216Z,7.07
2024-04-21T16:25:56.267Z,6.99
2024-04-21T16:28:25.214Z,6.90
2024-04-21T16:30:55.660Z,6.77
2024-04-21T16:33:29.868Z,6.63
2024-04-21T16:36:03.406Z,6.54
2024-04-21T16:38:35.651Z,6.46
2024-04-21T16:41:11.710Z,6.36
2024-04-21T16:43:42.991Z,6.24
2024-04-21T16:46:14.288Z,6.19
2024-04-21T16:48:46.696Z,6.22
2024-04-21T16:51:18.075Z,6.10
2024-04-21T16:53:50.713Z,5.96
2024-04-21T16:56:23.882Z,5.83
2024-04-21T16:58:55.519Z,5.71
2024-04-21T17:01:28.430Z,5.62
2024-04-21T17:04:01.042Z,5.57
2024-04-21T17:06:35.546Z,5.51
2024-04-21T17:09:09.712Z,5.45
2024-04-21T17:11:42.575Z,5.41
2024-04-21T17:14:12.929Z,5.37
2024-04-21T17:16:43.427Z,5.34
2024-04-21T17:19:14.325Z,5.33
2024-04-21T17:21:44.832Z,5.32
2024-04-21T17:24:15.627Z,5.34
2024-04-21T17:26:45.865Z,5.37
2024-04-21T17:29:17.088Z,5.37
2024-04-21T17:31:47.529Z,5.35
2024-04-21T17:34:19.987Z,5.35
2024-04-21T17:36:50.510Z,5.34
2024-04-21T17:39:20.745Z,5.35
2024-04-21T17:41:51.083Z,5.31
2024-04-21T17:44:21.775Z,5.29
2024-04-21T17:46:55.258Z,5.27
2024-04-21T17:49:25.760Z,5.21
2024-04-21T17:51:56.231Z,5.15
2024-04-21T17:54:26.399Z,5.10
2024-04-21T17:56:56.824Z,5.02
2024-04-21T17:59:27.703Z,5.03
2024-04-21T18:01:58.056Z,4.97
2024-04-21T18:04:28.452Z,4.92
2024-04-21T18:06:58.860Z,4.88
2024-04-21T18:09:29.157Z,4.80
2024-04-21T18:11:59.525Z,4.69
2024-04-21T18:14:30.262Z,4.61
2024-04-21T18:17:07.260Z,4.54
2024-04-21T18:19:44.355Z,4.50
2024-04-21T18:22:15.606Z,4.47
2024-04-21T18:24:46.347Z,4.44
2024-04-21T18:27:16.568Z,4.40
2024-04-21T18:29:46.769Z,4.36
2024-04-21T18:32:17.902Z,4.32
2024-04-21T18:34:48.167Z,4.32
2024-04-21T18:37:18.502Z,4.35
2024-04-21T18:39:49.412Z,4.35
2024-04-21T18:42:18.898Z,4.30
2024-04-21T18:44:49.306Z,4.25
2024-04-21T18:47:20.023Z,4.22
2024-04-21T18:49:50.250Z,4.18
2024-04-21T18:52:20.427Z,4.15
2024-04-21T18:54:50.971Z,4.16
2024-04-21T18:57:21.212Z,4.17
2024-04-21T18:59:51.578Z,4.19
2024-04-21T19:02:22.363Z,4.25
2024-04-21T19:04:53.020Z,4.33
2024-04-21T19:07:23.399Z,4.39
2024-04-21T19:09:55.590Z,4.38
2024-04-21T19:12:26.836Z,4.33
2024-04-21T19:14:59.583Z,4.30
2024-04-21T19:17:31.207Z,4.25
2024-04-21T19:20:02.639Z,4.23
2024-04-21T19:22:35.825Z,4.19
2024-04-21T19:25:07.583Z,4.12
2024-04-21T19:27:38.244Z,4.05
2024-04-21T19:30:11.108Z,4.00
2024-04-21T19:32:41.638Z,3.91
2024-04-21T19:35:12.804Z,3.79
2024-04-21T19:37:43.866Z,3.71
2024-04-21T19:40:14.172Z,3.66
2024-04-21T19:42:45.265Z,3.57
2024-04-21T19:45:14.156Z,3.51
2024-04-21T19:47:44.613Z,3.46
2024-04-21T19:50:15.368Z,3.41
2024-04-21T19:52:45.598Z,3.38
2024-04-21T19:55:16.538Z,3.37
2024-04-21T19:57:46.927Z,3.36
2024-04-21T20:00:18.594Z,3.34
2024-04-21T20:02:48.959Z,3.29
2024-04-21T20:05:26.687Z,3.25
2024-04-21T20:07:57.649Z,3.19
2024-04-21T20:10:29.129Z,3.16
2024-04-21T20:13:00.668Z,3.14
2024-04-21T20:15:31.149Z,3.12
2024-04-21T20:18:01.284Z,3.11
2024-04-21T20:20:31.807Z,3.08
2024-04-21T20:23:02.242Z,3.04
2024-04-21T20:25:36.945Z,3.01
2024-04-21T20:28:07.851Z,3.03
2024-04-21T20:30:38.138Z,3.07
2024-04-21T20:33:10.728Z,3.14
2024-04-21T20:35:41.307Z,3.26
2024-04-21T20:38:11.966Z,3.37
2024-04-21T20:40:42.241Z,3.44
2024-04-21T20:43:12.656Z,3.45
2024-04-21T20:45:43.465Z,3.44
2024-04-21T20:48:13.811Z,3.45
2024-04-21T20:50:45.499Z,3.46
2024-04-21T20:53:16.424Z,3.45
2024-04-21T20:55:47.313Z,3.44
2024-04-21T20:58:17.563Z,3.42
2024-04-21T21:00:48.647Z,3.39
2024-04-21T21:03:17.567Z,3.37
2024-04-21T21:05:47.786Z,3.36
2024-04-21T21:08:18.131Z,3.36
2024-04-21T21:10:48.559Z,3.36
2024-04-21T21:13:18.823Z,3.35
2024-04-21T21:15:49.058Z,3.37
2024-04-21T21:18:19.454Z,3.37
2024-04-21T21:20:50.592Z,3.36
2024-04-21T21:23:20.020Z,3.37
2024-04-21T21:25:50.983Z,3.37
2024-04-21T21:28:23.276Z,3.39
2024-04-21T21:30:53.439Z,3.40
2024-04-21T21:33:23.703Z,3.43
2024-04-21T21:35:57.732Z,3.44
2024-04-21T21:38:28.551Z,3.42
2024-04-21T21:40:58.807Z,3.40
2024-04-21T21:43:29.709Z,3.40
2024-04-21T21:46:00.264Z,3.39
2024-04-21T21:48:30.701Z,3.34
2024-04-21T21:51:01.022Z,3.28
2024-04-21T21:53:31.758Z,3.20
2024-04-21T21:56:02.398Z,3.13
2024-04-21T21:58:32.999Z,3.09
2024-04-21T22:01:03.846Z,3.05
2024-04-21T22:03:34.239Z,3.00
2024-04-21T22:06:05.277Z,2.95
2024-04-21T22:08:36.078Z,2.89
2024-04-21T22:11:06.564Z,2.79
2024-04-21T22:13:36.916Z,2.70
2024-04-21T22:16:11.184Z,2.63
2024-04-21T22:18:43.649Z,2.56
2024-04-21T22:21:15.094Z,2.51
2024-04-21T22:23:45.331Z,2.49
2024-04-21T22:26:15.684Z,2.49
2024-04-21T22:28:46.128Z,2.46
2024-04-21T22:31:19.828Z,2.41
2024-04-21T22:33:50.400Z,2.34
2024-04-21T22:36:20.664Z,2.30
2024-04-21T22:38:49.373Z,2.24
2024-04-21T22:41:18.539Z,2.14
2024-04-21T22:43:47.386Z,2.05
2024-04-21T22:46:16.495Z,1.99
2024-04-21T22:48:45.287Z,1.95
2024-04-21T22:51:14.042Z,1.88
2024-04-21T22:53:42.718Z,1.78
2024-04-21T22:56:11.791Z,1.75
2024-04-21T22:58:40.913Z,1.70
2024-04-21T23:01:10.062Z,1.61
2024-04-21T23:03:39.290Z,1.55
2024-04-21T23:06:09.436Z,1.52
2024-04-21T23:08:38.089Z,1.47
2024-04-21T23:11:07.275Z,1.43
2024-04-21T23:13:36.628Z,1.44
2024-04-21T23:16:06.310Z,1.40
2024-04-21T23:18:35.965Z,1.31
2024-04-21T23:21:05.303Z,1.23
2024-04-21T23:23:34.731Z,1.16
2024-04-21T23:26:04.082Z,1.11
2024-04-21T23:28:32.890Z,1.06
2024-04-21T23:31:02.120Z,1.01
2024-04-21T23:33:31.730Z,1.01
2024-04-21T23:36:00.463Z,1.00
2024-04-21T23:38:29.372Z,1.00
2024-04-21T23:40:58.396Z,1.00
2024-04-21T23:43:27.298Z,0.99
2024-04-21T23:45:56.076Z,1.01
2024-04-21T23:48:24.730Z,0.97
2024-04-21T23:50:53.642Z,0.93
2024-04-21T23:53:23.176Z,0.91
2024-04-21T23:55:51.923Z,0.86
2024-04-21T23:58:20.722Z,0.82
